Time;durP1;ratioP1;P1;durP2;ratioP2;P2;SDS_P1;SDS_P2;PMS_P1;PMS_P2;Temp;Humidity;BMP_temperature;BMP_pressure;BME280_temperature;BME280_humidity;BME280_pressure;Samples;Min_cycle;Max_cycle;Signal;HPM_P1;HPM_P2
2023/02/18 00:00:16;;;;;;;102.40;49.10;;;;;;;2.82;81.57;98776.11;107719;1253;73831;-36
2023/02/18 00:02:44;;;;;;;97.50;46.60;;;;;;;2.81;81.76;98767.93;107688;1253;61802;-36
2023/02/18 00:05:13;;;;;;;91.20;45.50;;;;;;;2.81;81.60;98759.09;107720;1252;60596;-36
2023/02/18 00:07:43;;;;;;;95.00;47.30;;;;;;;2.86;81.70;98749.77;107696;1252;75017;-36
2023/02/18 00:10:14;;;;;;;99.10;48.70;;;;;;;2.82;81.74;98742.45;107681;1257;69762;-36
2023/02/18 00:12:43;;;;;;;98.50;48.90;;;;;;;2.84;81.86;98734.03;107680;1253;73851;-37
2023/02/18 00:15:11;;;;;;;96.80;46.50;;;;;;;2.83;81.98;98723.52;107732;1254;61325;-37
2023/02/18 00:17:40;;;;;;;93.60;46.30;;;;;;;2.88;82.08;98716.83;107746;1254;60545;-37
2023/02/18 00:20:09;;;;;;;93.70;46.70;;;;;;;2.93;81.75;98707.31;107678;1256;75059;-37
2023/02/18 00:22:37;;;;;;;71.80;35.70;;;;;;;2.95;81.74;98698.90;107688;1253;67492;-37
2023/02/18 00:25:06;;;;;;;101.50;47.90;;;;;;;2.97;81.78;98694.67;107697;1253;72731;-37
2023/02/18 00:27:34;;;;;;;92.70;46.60;;;;;;;2.99;81.94;98684.95;107637;1252;62347;-37
2023/02/18 00:30:04;;;;;;;95.70;48.00;;;;;;;3.02;81.64;98679.36;107694;1254;61280;-37
2023/02/18 00:32:36;;;;;;;99.20;48.40;;;;;;;3.07;81.31;98664.05;107679;1254;72924;-37
2023/02/18 00:35:05;;;;;;;98.00;49.20;;;;;;;3.07;81.46;98659.39;107634;1254;68898;-37
2023/02/18 00:37:35;;;;;;;91.30;49.20;;;;;;;3.04;81.38;98649.34;107687;1253;73871;-37
2023/02/18 00:40:05;;;;;;;98.00;49.10;;;;;;;2.99;81.49;98642.82;107541;1252;62393;-37
2023/02/18 00:42:37;;;;;;;93.40;47.10;;;;;;;2.98;81.63;98635.77;107682;1253;61564;-37
2023/02/18 00:45:07;;;;;;;97.20;48.30;;;;;;;3.02;81.43;98625.79;107720;1254;74902;-37
2023/02/18 00:47:35;;;;;;;95.50;47.90;;;;;;;3.03;81.61;98621.17;107739;1254;69445;-37
2023/02/18 00:50:04;;;;;;;94.40;47.70;;;;;;;3.01;81.83;98615.95;107746;1254;72329;-37
2023/02/18 00:52:33;;;;;;;97.60;46.50;;;;;;;2.97;81.95;98600.30;107711;1254;62202;-37
2023/02/18 00:55:01;;;;;;;95.20;46.70;;;;;;;2.99;81.95;98594.77;107688;1253;61349;-37
2023/02/18 00:57:30;;;;;;;90.80;46.00;;;;;;;3.07;81.94;98586.48;107717;1253;75005;-37
2023/02/18 00:59:58;;;;;;;94.60;47.70;;;;;;;3.10;81.88;98578.79;107771;1254;67745;-37
2023/02/18 01:02:27;;;;;;;97.90;49.40;;;;;;;3.06;81.96;98570.69;107688;1254;73868;-37
2023/02/18 01:04:56;;;;;;;83.00;39.60;;;;;;;2.99;82.21;98564.25;107730;1254;61305;-37
2023/02/18 01:07:25;;;;;;;90.20;46.70;;;;;;;2.96;82.35;98555.42;107801;1253;60322;-37
2023/02/18 01:09:53;;;;;;;88.90;47.20;;;;;;;2.98;82.59;98550.31;107700;1254;74995;-37
2023/02/18 01:12:22;;;;;;;98.80;48.80;;;;;;;2.96;82.76;98535.52;107568;1254;69159;-37
2023/02/18 01:14:50;;;;;;;96.70;48.40;;;;;;;2.92;83.07;98527.11;107604;1252;73915;-37
2023/02/18 01:17:18;;;;;;;95.70;48.70;;;;;;;2.86;83.39;98519.80;107610;1254;62413;-37
2023/02/18 01:19:47;;;;;;;91.20;46.30;;;;;;;2.84;83.49;98512.88;107725;1254;61556;-37
2023/02/18 01:22:16;;;;;;;95.40;46.40;;;;;;;2.88;83.35;98509.80;107694;1256;75472;-37
2023/02/18 01:24:44;;;;;;;97.30;49.00;;;;;;;2.86;83.52;98504.95;107723;1254;69921;-37
2023/02/18 01:27:13;;;;;;;93.10;47.30;;;;;;;2.81;83.97;98504.33;107697;1254;73821;-37
2023/02/18 01:29:42;;;;;;;85.90;44.60;;;;;;;2.77;84.15;98497.21;107659;1254;62403;-37
2023/02/18 01:32:11;;;;;;;89.10;46.10;;;;;;;2.77;84.20;98485.31;107647;1254;61497;-37
2023/02/18 01:34:42;;;;;;;90.10;47.20;;;;;;;2.78;84.46;98477.40;107703;1254;74172;-37
2023/02/18 01:37:11;;;;;;;89.10;47.10;;;;;;;2.75;84.77;98473.06;107717;1254;69838;-37
2023/02/18 01:39:39;;;;;;;80.50;42.70;;;;;;;2.69;85.07;98468.13;107732;1254;73812;-37
2023/02/18 01:42:19;;;;;;;84.20;44.90;;;;;;;2.70;85.08;98459.90;107695;1254;61942;-37
2023/02/18 01:44:49;;;;;;;88.50;45.80;;;;;;;2.75;84.88;98449.13;107746;1253;60376;-36
2023/02/18 01:47:18;;;;;;;87.90;44.70;;;;;;;2.72;85.13;98445.90;107700;1254;74881;-36
2023/02/18 01:49:49;;;;;;;77.20;41.40;;;;;;;2.69;85.31;98435.48;107698;1254;69934;-36
2023/02/18 01:52:19;;;;;;;78.00;42.50;;;;;;;2.70;85.26;98430.15;107585;1253;73800;-36
2023/02/18 01:54:49;;;;;;;74.30;41.00;;;;;;;2.74;85.14;98424.77;107688;1254;60742;-36
2023/02/18 01:57:20;;;;;;;76.70;40.80;;;;;;;2.70;85.24;98417.02;107708;1253;61229;-36
2023/02/18 01:59:52;;;;;;;67.50;37.70;;;;;;;2.65;85.45;98419.05;107743;1252;72582;-36
2023/02/18 02:02:23;;;;;;;69.30;38.30;;;;;;;2.64;85.42;98408.70;107677;1256;69930;-36
2023/02/18 02:04:51;;;;;;;71.70;38.00;;;;;;;2.67;85.48;98404.74;107710;1252;73918;-36
2023/02/18 02:07:21;;;;;;;67.00;38.00;;;;;;;2.65;85.26;98401.02;107720;1253;61302;-36
2023/02/18 02:09:50;;;;;;;65.60;37.90;;;;;;;2.61;85.48;98390.25;107714;1254;60307;-36
2023/02/18 02:12:46;;;;;;;62.50;35.20;;;;;;;2.56;85.63;98380.52;107696;1256;72909;-36
2023/02/18 02:15:37;;;;;;;63.50;34.20;;;;;;;2.58;85.64;98374.16;107587;1254;70101;-36
2023/02/18 02:18:07;;;;;;;59.70;35.50;;;;;;;2.58;85.49;98361.09;107656;1254;73566;-36
2023/02/18 02:21:01;;;;;;;65.40;35.40;;;;;;;2.50;85.77;98351.42;107719;1253;60523;-36
2023/02/18 02:23:53;;;;;;;57.50;33.30;;;;;;;2.49;85.79;98353.98;107596;1252;60437;-36
2023/02/18 02:27:11;;;;;;;62.30;34.60;;;;;;;2.50;85.74;98344.68;107423;1254;73269;-37
2023/02/18 02:29:51;;;;;;;66.10;37.60;;;;;;;2.49;85.96;98336.70;107045;1260;69899;-36
2023/02/18 02:32:44;;;;;;;62.10;35.70;;;;;;;2.46;86.17;98331.64;107668;1254;73905;-36
2023/02/18 02:35:56;;;;;;;63.60;36.80;;;;;;;2.50;86.15;98324.20;107649;1254;62050;-36
2023/02/18 02:38:34;;;;;;;66.10;36.70;;;;;;;2.56;86.16;98312.80;107084;1258;61679;-36
2023/02/18 02:41:15;;;;;;;67.00;37.00;;;;;;;2.54;86.38;98305.45;107578;1253;75157;-36
2023/02/18 02:44:06;;;;;;;62.50;34.80;;;;;;;2.51;86.70;98294.65;107679;1253;69799;-36
2023/02/18 02:46:40;;;;;;;63.70;36.10;;;;;;;2.58;86.77;98294.41;107587;1253;73890;-36
2023/02/18 02:49:24;;;;;;;65.00;36.30;;;;;;;2.63;86.59;98292.69;107709;1252;61259;-36
2023/02/18 02:52:02;;;;;;;61.40;35.60;;;;;;;2.62;86.79;98279.88;107685;1253;61330;-36
2023/02/18 02:54:31;;;;;;;62.20;34.40;;;;;;;2.58;87.02;98277.00;107727;1254;73797;-36
2023/02/18 02:57:12;;;;;;;56.90;34.00;;;;;;;2.62;87.15;98276.14;107739;1255;68705;-36
2023/02/18 03:00:03;;;;;;;58.90;34.30;;;;;;;2.69;87.03;98270.48;107603;1254;73572;-37
2023/02/18 03:02:57;;;;;;;62.00;34.40;;;;;;;2.69;87.57;98269.55;107628;1254;61702;-36
2023/02/18 03:05:48;;;;;;;61.90;33.90;;;;;;;2.66;87.83;98261.50;107668;1254;61444;-36
2023/02/18 03:08:37;;;;;;;57.20;33.80;;;;;;;2.70;87.87;98254.00;107682;1254;73865;-36
2023/02/18 03:11:10;;;;;;;57.90;32.70;;;;;;;2.76;87.81;98252.81;107577;1254;69925;-36
2023/02/18 03:13:53;;;;;;;52.50;31.20;;;;;;;2.77;88.01;98240.83;107697;1254;72869;-36
2023/02/18 03:16:31;;;;;;;54.10;31.10;;;;;;;2.77;88.17;98244.28;107665;1254;61744;-36
2023/02/18 03:19:22;;;;;;;54.00;30.90;;;;;;;2.80;88.16;98241.84;107702;1253;60514;-36
2023/02/18 03:22:12;;;;;;;52.70;30.10;;;;;;;2.89;88.15;98238.98;107632;1253;74902;-36
2023/02/18 03:24:42;;;;;;;54.40;31.30;;;;;;;2.90;88.38;98238.71;107482;1254;69842;-37
2023/02/18 03:27:22;;;;;;;51.50;29.70;;;;;;;2.89;88.28;98230.20;107510;1254;73512;-36
2023/02/18 03:30:17;;;;;;;48.50;29.60;;;;;;;2.93;88.33;98220.77;107668;1254;62333;-37
2023/02/18 03:32:47;;;;;;;48.50;29.50;;;;;;;2.94;88.13;98203.21;107752;1254;60332;-36
2023/02/18 03:35:16;;;;;;;44.30;27.70;;;;;;;2.98;88.46;98207.00;107592;1254;74797;-36
2023/02/18 03:37:59;;;;;;;44.60;26.50;;;;;;;2.96;88.50;98211.83;107686;1254;68907;-36
2023/02/18 03:40:29;;;;;;;41.80;26.20;;;;;;;2.97;88.56;98205.98;107707;1254;73837;-36
2023/02/18 03:42:59;;;;;;;34.50;21.40;;;;;;;2.99;88.57;98198.31;107711;1257;61356;-36
2023/02/18 03:45:28;;;;;;;41.60;25.60;;;;;;;2.97;88.59;98194.27;107759;1254;61340;-36
2023/02/18 03:48:02;;;;;;;47.80;26.10;;;;;;;2.93;88.94;98194.23;107726;1252;73445;-37
2023/02/18 03:50:31;;;;;;;38.40;24.30;;;;;;;2.95;89.01;98190.06;107707;1254;69456;-36
2023/02/18 03:53:05;;;;;;;42.40;24.70;;;;;;;3.00;89.02;98176.07;107672;1255;73807;-36
2023/02/18 03:55:34;;;;;;;40.90;24.30;;;;;;;2.99;89.16;98166.64;107721;1254;61536;-36
2023/02/18 03:58:02;;;;;;;39.80;23.80;;;;;;;2.96;89.30;98161.66;107755;1254;60800;-36
2023/02/18 04:00:31;;;;;;;39.00;23.60;;;;;;;2.98;89.35;98152.31;107726;1252;75501;-36
2023/02/18 04:02:59;;;;;;;40.90;24.50;;;;;;;3.03;89.13;98146.64;107769;1254;70162;-37
2023/02/18 04:05:27;;;;;;;40.50;24.80;;;;;;;3.01;89.04;98134.27;107748;1256;73887;-37
2023/02/18 04:07:56;;;;;;;39.50;24.40;;;;;;;2.98;89.30;98120.80;107709;1254;60367;-36
2023/02/18 04:10:29;;;;;;;37.90;23.10;;;;;;;3.00;89.35;98113.67;107683;1254;61245;-37
2023/02/18 04:12:58;;;;;;;38.30;23.80;;;;;;;3.06;89.24;98107.33;107722;1252;74982;-36
2023/02/18 04:15:27;;;;;;;37.40;24.00;;;;;;;3.08;89.23;98108.98;107783;1254;69962;-36
2023/02/18 04:17:55;;;;;;;34.50;21.60;;;;;;;3.07;89.40;98101.77;107755;1254;72019;-36
2023/02/18 04:20:24;;;;;;;31.40;21.80;;;;;;;3.10;89.42;98100.31;107687;1253;60634;-36
2023/02/18 04:22:52;;;;;;;34.40;20.30;;;;;;;3.16;89.23;98088.70;107773;1254;60434;-37
2023/02/18 04:25:20;;;;;;;34.80;21.90;;;;;;;3.17;89.29;98088.42;107739;1254;75081;-36
2023/02/18 04:27:50;;;;;;;33.00;19.90;;;;;;;3.16;89.38;98080.65;107667;1254;69625;-36
2023/02/18 04:30:18;;;;;;;27.30;18.00;;;;;;;3.19;89.24;98079.30;107676;1254;73733;-36
2023/02/18 04:32:47;;;;;;;29.90;19.40;;;;;;;3.20;89.41;98064.41;107689;1256;61554;-36
2023/02/18 04:35:15;;;;;;;32.00;20.00;;;;;;;3.29;89.31;98064.94;107740;1252;61652;-37
2023/02/18 04:37:45;;;;;;;28.20;17.50;;;;;;;3.30;89.46;98066.44;107713;1254;73734;-36
2023/02/18 04:40:13;;;;;;;27.20;16.80;;;;;;;3.30;89.78;98064.52;107674;1253;69930;-36
2023/02/18 04:42:42;;;;;;;27.50;17.80;;;;;;;3.35;89.68;98057.99;107662;1256;73711;-36
2023/02/18 04:45:11;;;;;;;27.80;17.20;;;;;;;3.42;89.62;98053.89;107721;1254;61461;-36
2023/02/18 04:47:39;;;;;;;27.30;17.20;;;;;;;3.46;89.62;98052.91;107711;1253;61512;-36
2023/02/18 04:50:09;;;;;;;27.70;17.00;;;;;;;3.44;89.93;98055.16;106925;1254;1003048;-36
2023/02/18 04:52:37;;;;;;;22.60;15.10;;;;;;;3.47;89.95;98046.27;107740;1254;70021;-37
2023/02/18 04:55:06;;;;;;;25.20;16.80;;;;;;;3.53;90.24;98040.98;107710;1256;72717;-36
2023/02/18 04:57:35;;;;;;;24.80;16.80;;;;;;;3.57;90.16;98009.87;107735;1254;61259;-36
2023/02/18 05:00:05;;;;;;;25.40;16.60;;;;;;;3.57;90.30;98017.61;107699;1253;61362;-36
2023/02/18 05:02:35;;;;;;;22.60;15.30;;;;;;;3.61;90.58;98017.39;107714;1254;75081;-36
2023/02/18 05:05:07;;;;;;;24.10;15.00;;;;;;;3.67;90.46;98011.72;107720;1256;69245;-36
2023/02/18 05:07:35;;;;;;;22.40;14.60;;;;;;;3.70;90.57;98022.34;107620;1254;71629;-36
2023/02/18 05:10:05;;;;;;;22.30;14.00;;;;;;;3.69;90.87;98016.11;107712;1256;61847;-36
2023/02/18 05:12:34;;;;;;;20.60;14.30;;;;;;;3.71;91.08;98017.63;107729;1256;61154;-37
2023/02/18 05:15:03;;;;;;;19.70;13.00;;;;;;;3.78;91.10;98019.02;107748;1254;74803;-37
2023/02/18 05:17:32;;;;;;;19.50;12.50;;;;;;;3.84;91.13;98024.67;107710;1256;69992;-36
2023/02/18 05:20:01;;;;;;;19.80;13.10;;;;;;;3.84;91.04;98023.01;107717;1255;73918;-36
2023/02/18 05:22:30;;;;;;;18.40;12.70;;;;;;;3.87;91.02;98012.89;107688;1253;62340;-37
2023/02/18 05:24:58;;;;;;;17.70;12.20;;;;;;;3.93;91.17;98002.90;107738;1254;62363;-36
2023/02/18 05:27:26;;;;;;;18.20;12.40;;;;;;;3.98;91.32;97998.80;107656;1252;75052;-37
2023/02/18 05:29:55;;;;;;;17.30;11.20;;;;;;;4.00;91.54;98006.27;107684;1256;69824;-37
2023/02/18 05:32:24;;;;;;;17.30;11.50;;;;;;;4.04;91.59;97998.72;107697;1254;74184;-37
2023/02/18 05:34:52;;;;;;;15.50;10.60;;;;;;;4.12;91.39;98003.62;107687;1255;63138;-37
2023/02/18 05:37:21;;;;;;;16.90;11.40;;;;;;;4.18;91.46;98006.08;107672;1256;60580;-37
2023/02/18 05:39:50;;;;;;;18.90;11.50;;;;;;;4.21;91.49;98003.98;107678;1254;75018;-38
2023/02/18 05:42:20;;;;;;;14.80;9.90;;;;;;;4.21;91.68;97999.70;107748;1254;69009;-37
2023/02/18 05:44:48;;;;;;;13.80;9.80;;;;;;;4.26;91.69;98001.88;107668;1254;73030;-37
2023/02/18 05:47:17;;;;;;;13.60;10.00;;;;;;;4.35;91.80;97994.95;107677;1254;61544;-37
2023/02/18 05:49:49;;;;;;;13.70;10.00;;;;;;;4.39;91.50;97982.98;107727;1253;61319;-37
2023/02/18 05:52:18;;;;;;;15.20;9.30;;;;;;;4.37;91.49;97981.34;107680;1255;74227;-37
2023/02/18 05:54:46;;;;;;;11.40;8.30;;;;;;;4.44;91.43;97982.25;107746;1257;69830;-37
2023/02/18 05:57:15;;;;;;;13.60;9.20;;;;;;;4.45;91.38;97976.22;107726;1254;73857;-37
2023/02/18 05:59:43;;;;;;;12.40;8.60;;;;;;;4.53;91.62;97988.40;107659;1254;62913;-37
2023/02/18 06:02:13;;;;;;;13.20;8.70;;;;;;;4.58;91.72;97980.70;107671;1254;61579;-37
2023/02/18 06:04:41;;;;;;;11.80;8.00;;;;;;;4.63;91.57;97982.95;107648;1252;75096;-37
2023/02/18 06:07:10;;;;;;;13.70;9.10;;;;;;;4.66;91.80;97986.39;107696;1256;69488;-37
2023/02/18 06:09:38;;;;;;;13.00;8.70;;;;;;;4.67;91.99;97981.12;107686;1256;73739;-37
2023/02/18 06:12:10;;;;;;;10.60;7.50;;;;;;;4.73;92.02;97975.86;107680;1254;62791;-37
2023/02/18 06:14:41;;;;;;;9.70;7.60;;;;;;;4.82;92.11;97984.61;107661;1254;61618;-37
2023/02/18 06:17:13;;;;;;;11.90;8.70;;;;;;;4.92;92.34;97977.20;107680;1254;74827;-37
2023/02/18 06:19:44;;;;;;;12.30;8.60;;;;;;;4.94;92.69;97972.42;107744;1255;69693;-37
2023/02/18 06:22:12;;;;;;;10.70;7.50;;;;;;;5.02;92.78;97973.55;107701;1257;71839;-37
2023/02/18 06:24:41;;;;;;;10.00;7.10;;;;;;;5.09;92.29;97973.40;107727;1257;63121;-37
2023/02/18 06:27:10;;;;;;;12.60;8.40;;;;;;;5.15;91.86;97967.96;107709;1254;60821;-37
2023/02/18 06:29:38;;;;;;;11.50;8.20;;;;;;;5.21;91.77;97971.38;107730;1254;75050;-37
2023/02/18 06:32:07;;;;;;;10.90;8.00;;;;;;;5.22;91.86;97972.33;107692;1254;69853;-37
2023/02/18 06:34:36;;;;;;;12.20;8.50;;;;;;;5.28;91.69;97968.20;107662;1255;73889;-37
2023/02/18 06:37:04;;;;;;;10.70;7.80;;;;;;;5.34;91.09;97972.82;107731;1254;61569;-37
2023/02/18 06:39:38;;;;;;;13.00;8.60;;;;;;;5.31;90.87;97965.33;107679;1254;60332;-37
2023/02/18 06:42:06;;;;;;;10.20;7.80;;;;;;;5.33;90.93;97969.27;107701;1252;73998;-37
2023/02/18 06:44:35;;;;;;;10.80;8.10;;;;;;;5.36;90.96;97966.09;107661;1257;69664;-37
2023/02/18 06:47:06;;;;;;;11.00;8.10;;;;;;;5.43;91.01;97966.23;107688;1257;73845;-38
2023/02/18 06:49:35;;;;;;;11.00;7.90;;;;;;;5.49;91.21;97964.24;107754;1254;61433;-38
2023/02/18 06:52:04;;;;;;;10.60;7.60;;;;;;;5.52;91.54;97962.15;107639;1253;60765;-37
2023/02/18 06:54:33;;;;;;;10.10;7.50;;;;;;;5.62;91.72;97970.98;107694;1254;74625;-37
2023/02/18 06:57:01;;;;;;;10.40;8.00;;;;;;;5.76;91.68;97979.73;107724;1253;69938;-37
2023/02/18 06:59:30;;;;;;;14.90;8.40;;;;;;;5.87;91.43;97980.52;107674;1254;73601;-37
2023/02/18 07:01:58;;;;;;;10.60;7.90;;;;;;;5.91;90.81;97981.45;107420;1257;343261;-37
2023/02/18 07:05:36;;;;;;;10.90;7.90;;;;;;;6.07;90.28;97992.67;104355;1293;600220;-36
2023/02/18 07:08:05;;;;;;;9.80;6.10;;;;;;;6.11;90.17;98037.63;106766;1264;60294;-36
2023/02/18 07:10:33;;;;;;;3.20;2.00;;;;;;;6.05;84.56;98052.68;106762;1264;60852;-36
2023/02/18 07:13:07;;;;;;;2.40;1.30;;;;;;;5.89;80.73;98040.82;106801;1264;73605;-36
2023/02/18 07:15:35;;;;;;;2.90;1.50;;;;;;;5.65;80.15;98036.02;106780;1263;69831;-36
2023/02/18 07:18:04;;;;;;;3.70;1.70;;;;;;;5.42;80.64;98032.00;106635;1264;175108;-40
2023/02/18 07:20:38;;;;;;;2.00;1.40;;;;;;;5.23;81.73;98035.73;106895;1264;62040;-37
2023/02/18 07:23:07;;;;;;;4.90;1.80;;;;;;;5.16;82.62;98045.81;106981;1263;61511;-36
2023/02/18 07:25:36;;;;;;;7.30;2.50;;;;;;;5.08;83.70;98050.20;106959;1262;73471;-36
2023/02/18 07:28:04;;;;;;;4.70;1.80;;;;;;;5.01;84.34;98049.90;106894;1264;69760;-36
2023/02/18 07:30:34;;;;;;;5.40;1.80;;;;;;;5.01;84.50;98039.01;106896;1267;71840;-36
2023/02/18 07:33:03;;;;;;;6.20;2.00;;;;;;;5.04;84.00;98038.45;106817;1263;61622;-36
2023/02/18 07:35:31;;;;;;;8.40;2.10;;;;;;;5.05;83.16;98020.13;106775;1264;60397;-37
2023/02/18 07:38:02;;;;;;;7.60;2.00;;;;;;;5.07;82.07;98012.09;106809;1263;73256;-36
2023/02/18 07:40:31;;;;;;;7.40;2.00;;;;;;;5.17;81.89;98019.66;106907;1264;69945;-37
2023/02/18 07:42:59;;;;;;;6.20;1.90;;;;;;;5.31;81.73;98021.77;106879;1263;72909;-37
2023/02/18 07:45:28;;;;;;;8.60;2.20;;;;;;;5.40;81.94;98022.98;106139;1264;1003328;-37
2023/02/18 07:47:56;;;;;;;6.90;2.10;;;;;;;5.44;81.71;98018.31;106905;1263;61546;-37
2023/02/18 07:50:25;;;;;;;7.90;2.20;;;;;;;5.47;81.52;98016.52;106829;1267;72164;-37
2023/02/18 07:52:54;;;;;;;7.00;2.00;;;;;;;5.52;80.90;98017.45;106859;1263;70006;-37
2023/02/18 07:55:23;;;;;;;6.00;2.20;;;;;;;5.55;80.94;98015.42;106877;1263;73859;-38
2023/02/18 07:57:59;;;;;;;7.70;2.50;;;;;;;5.54;81.21;98012.27;106848;1264;61588;-37
2023/02/18 08:00:29;;;;;;;5.70;2.10;;;;;;;5.52;81.49;98011.30;106870;1264;61504;-38
2023/02/18 08:02:57;;;;;;;6.50;2.50;;;;;;;5.57;81.79;98005.23;106879;1264;74080;-38
2023/02/18 08:05:26;;;;;;;5.90;2.30;;;;;;;5.64;81.96;98000.52;106889;1263;69909;-38
2023/02/18 08:07:54;;;;;;;7.80;3.00;;;;;;;5.71;82.07;97994.54;106897;1264;73878;-38
2023/02/18 08:10:23;;;;;;;3.80;2.20;;;;;;;5.76;82.40;97995.70;106797;1263;62114;-38
2023/02/18 08:12:51;;;;;;;5.50;2.70;;;;;;;5.85;82.59;97989.88;106879;1264;61469;-38
2023/02/18 08:15:20;;;;;;;5.30;2.70;;;;;;;5.97;82.40;97993.45;106862;1263;74278;-38
2023/02/18 08:17:48;;;;;;;6.70;2.80;;;;;;;6.06;82.37;97993.90;106835;1264;69724;-38
2023/02/18 08:20:16;;;;;;;4.00;2.50;;;;;;;6.13;82.29;97994.60;106809;1263;73906;-38
2023/02/18 08:22:45;;;;;;;5.60;2.60;;;;;;;6.23;81.93;97998.81;106835;1264;63187;-38
2023/02/18 08:25:14;;;;;;;6.70;2.50;;;;;;;6.34;81.13;98001.83;106833;1263;61752;-38
2023/02/18 08:27:57;;;;;;;8.90;3.20;;;;;;;6.42;80.18;98003.38;106821;1264;73279;-38
2023/02/18 08:30:25;;;;;;;8.30;3.40;;;;;;;6.49;79.86;98003.02;106842;1263;69643;-38
2023/02/18 08:32:54;;;;;;;6.50;2.80;;;;;;;6.60;78.91;98002.46;106857;1264;72324;-38
2023/02/18 08:35:23;;;;;;;7.70;3.00;;;;;;;6.70;78.02;97999.36;106888;1263;61549;-38
2023/02/18 08:37:51;;;;;;;10.00;3.20;;;;;;;6.73;77.25;98001.93;106871;1267;61997;-38
2023/02/18 08:40:21;;;;;;;7.70;2.60;;;;;;;6.73;76.67;98003.25;106861;1264;74232;-38
2023/02/18 08:42:50;;;;;;;8.10;3.10;;;;;;;6.74;75.59;98006.18;106836;1267;69835;-38
2023/02/18 08:45:18;;;;;;;8.50;2.70;;;;;;;6.78;75.43;98009.45;106843;1264;72833;-38
2023/02/18 08:47:46;;;;;;;7.90;3.20;;;;;;;6.80;75.10;98008.48;106815;1267;61616;-38
2023/02/18 08:50:36;;;;;;;7.50;2.70;;;;;;;6.79;74.47;98012.06;106869;1263;60456;-38
2023/02/18 08:53:05;;;;;;;6.60;2.40;;;;;;;6.81;74.27;98012.34;106856;1264;73098;-38
2023/02/18 08:55:39;;;;;;;7.30;2.70;;;;;;;6.81;73.25;98014.73;106859;1263;69933;-38
2023/02/18 08:58:07;;;;;;;6.20;2.90;;;;;;;6.79;72.89;98015.23;106847;1263;73949;-38
2023/02/18 09:00:36;;;;;;;7.00;2.70;;;;;;;6.77;72.83;98020.76;106844;1264;61360;-38
2023/02/18 09:03:05;;;;;;;8.20;2.90;;;;;;;6.77;72.99;98023.61;106856;1263;61550;-38
2023/02/18 09:05:34;;;;;;;5.60;2.40;;;;;;;6.84;72.93;98027.00;106838;1263;72705;-38
2023/02/18 09:08:03;;;;;;;9.00;2.40;;;;;;;6.87;72.44;98023.80;106850;1263;69774;-38
2023/02/18 09:10:32;;;;;;;10.90;2.70;;;;;;;6.86;71.51;98021.48;106849;1263;73900;-38
2023/02/18 09:13:00;;;;;;;5.70;2.60;;;;;;;6.82;70.47;98026.20;106878;1263;61474;-38
2023/02/18 09:15:31;;;;;;;7.80;2.50;;;;;;;6.80;70.70;98028.24;106816;1263;61535;-38
2023/02/18 09:18:02;;;;;;;6.60;2.00;;;;;;;6.80;70.26;98028.11;106841;1264;73847;-38
2023/02/18 09:20:30;;;;;;;7.00;2.60;;;;;;;6.82;69.84;98023.97;106927;1264;69851;-38
2023/02/18 09:23:00;;;;;;;6.80;2.30;;;;;;;6.81;70.16;98022.89;106863;1263;73000;-38
2023/02/18 09:25:29;;;;;;;;;;;;;;;6.79;69.47;98033.24;106821;1263;62492;-38
2023/02/18 09:27:57;;;;;;;6.70;2.40;;;;;;;6.72;69.00;98032.16;106841;1263;61199;-38
2023/02/18 09:30:25;;;;;;;8.20;2.40;;;;;;;6.71;68.75;98036.06;106841;1263;72226;-37
2023/02/18 09:32:54;;;;;;;9.60;2.70;;;;;;;6.80;68.52;98035.64;106848;1263;68230;-37
2023/02/18 09:35:23;;;;;;;11.50;2.20;;;;;;;6.82;68.65;98035.51;106845;1264;73898;-37
2023/02/18 09:37:51;;;;;;;9.20;2.60;;;;;;;6.83;68.18;98032.29;106829;1263;60395;-37
2023/02/18 09:40:25;;;;;;;7.80;2.60;;;;;;;6.84;67.69;98034.55;106891;1264;60050;-37
2023/02/18 09:42:54;;;;;;;7.40;2.10;;;;;;;6.84;67.18;98037.39;106829;1263;73229;-37
2023/02/18 09:45:25;;;;;;;7.40;2.50;;;;;;;6.90;66.47;98029.69;106840;1264;69966;-37
2023/02/18 09:47:53;;;;;;;10.60;2.20;;;;;;;6.95;66.58;98029.36;106817;1264;72870;-37
2023/02/18 09:50:30;;;;;;;6.40;2.20;;;;;;;6.98;66.26;98031.23;106793;1264;61349;-37
2023/02/18 09:52:59;;;;;;;8.10;2.20;;;;;;;6.99;66.04;98037.64;106859;1264;59464;-37
2023/02/18 09:55:35;;;;;;;9.90;2.40;;;;;;;6.99;65.42;98033.95;106796;1263;73479;-37
2023/02/18 09:58:06;;;;;;;4.90;2.00;;;;;;;6.97;65.02;98026.08;106139;1267;1002986;-38
2023/02/18 10:00:42;;;;;;;7.10;2.40;;;;;;;6.95;64.17;98025.45;106748;1270;73806;-37
2023/02/18 10:03:22;;;;;;;6.80;2.10;;;;;;;7.00;63.81;98026.96;106780;1264;61350;-38
2023/02/18 10:06:24;;;;;;;7.20;2.30;;;;;;;7.04;63.72;98026.23;106881;1264;60335;-37
2023/02/18 10:08:53;;;;;;;8.10;2.10;;;;;;;7.06;63.48;98025.33;106855;1263;72748;-37
2023/02/18 10:11:27;;;;;;;5.30;1.70;;;;;;;7.09;62.95;98025.73;106891;1267;69967;-37
2023/02/18 10:13:57;;;;;;;9.80;2.40;;;;;;;7.13;62.20;98020.25;106846;1264;72901;-37
2023/02/18 10:16:25;;;;;;;6.50;2.10;;;;;;;7.19;61.90;98016.54;106835;1263;59511;-37
2023/02/18 10:18:56;;;;;;;6.50;2.00;;;;;;;7.25;61.81;98017.29;106895;1263;61518;-37
2023/02/18 10:21:27;;;;;;;6.20;1.90;;;;;;;7.29;61.20;98020.64;106881;1264;73953;-37
2023/02/18 10:23:57;;;;;;;;;;;;;;;7.29;60.28;98018.80;106843;1263;68014;-37
2023/02/18 10:26:30;;;;;;;8.40;2.50;;;;;;;7.18;60.33;98015.75;106842;1263;72782;-37
2023/02/18 10:28:59;;;;;;;7.80;2.20;;;;;;;7.10;60.46;98018.45;106866;1263;59628;-37
2023/02/18 10:31:34;;;;;;;10.10;2.40;;;;;;;7.08;60.48;98021.02;106869;1263;61219;-37
2023/02/18 10:34:15;;;;;;;7.60;2.30;;;;;;;7.08;60.47;98027.73;106810;1264;74272;-37
2023/02/18 10:36:50;;;;;;;9.20;2.10;;;;;;;7.08;59.60;98008.71;106837;1263;69870;-37
2023/02/18 10:39:37;;;;;;;7.20;2.90;;;;;;;7.08;58.97;98014.25;106812;1263;73854;-37
2023/02/18 10:42:24;;;;;;;10.30;2.70;;;;;;;7.09;59.31;98015.59;106869;1263;60817;-37
2023/02/18 10:45:03;;;;;;;9.90;2.10;;;;;;;7.11;59.29;98017.21;106838;1263;61433;-37
2023/02/18 10:47:39;;;;;;;12.40;2.40;;;;;;;7.14;58.63;98011.17;106848;1263;73981;-38
2023/02/18 10:50:12;;;;;;;8.00;2.20;;;;;;;7.16;58.75;98022.52;106839;1263;69587;-38
2023/02/18 10:52:43;;;;;;;7.20;2.50;;;;;;;7.19;58.15;98021.70;106845;1263;72897;-37
2023/02/18 10:55:14;;;;;;;7.90;2.50;;;;;;;7.21;57.66;98016.55;106820;1263;59483;-37
2023/02/18 10:57:46;;;;;;;7.00;1.90;;;;;;;7.24;58.18;98019.90;106859;1263;61190;-37
2023/02/18 11:00:23;;;;;;;6.70;2.10;;;;;;;7.24;58.05;98016.59;106857;1263;73897;-38
2023/02/18 11:03:10;;;;;;;7.40;2.50;;;;;;;7.21;57.78;98017.95;106889;1263;67768;-37
2023/02/18 11:05:38;;;;;;;11.10;3.30;;;;;;;7.19;57.80;98025.02;106830;1263;73881;-37
2023/02/18 11:08:26;;;;;;;8.50;2.70;;;;;;;7.11;57.25;98019.45;106843;1264;60486;-37
2023/02/18 11:10:54;;;;;;;5.50;1.80;;;;;;;7.07;58.68;98023.88;106877;1264;60486;-37
2023/02/18 11:13:27;;;;;;;9.30;2.50;;;;;;;7.01;59.34;98022.27;106850;1266;74088;-37
2023/02/18 11:15:57;;;;;;;8.10;2.00;;;;;;;6.97;59.83;98018.69;106885;1263;67824;-37
2023/02/18 11:18:39;;;;;;;9.90;2.20;;;;;;;6.92;59.45;98016.78;106865;1267;73890;-37
2023/02/18 11:21:25;;;;;;;7.80;2.10;;;;;;;6.90;59.84;98021.30;106841;1263;60556;-37
2023/02/18 11:23:55;;;;;;;5.40;1.90;;;;;;;6.87;59.59;98015.41;106848;1263;61432;-37
2023/02/18 11:26:31;;;;;;;5.90;2.00;;;;;;;6.85;60.27;98022.55;107287;1257;74789;-37
2023/02/18 11:29:03;;;;;;;9.60;2.30;;;;;;;6.83;60.62;98026.14;107324;1257;70453;-37
2023/02/18 11:31:58;;;;;;;7.00;2.20;;;;;;;6.78;60.42;98025.23;107271;1257;72634;-37
2023/02/18 11:34:29;;;;;;;6.30;2.00;;;;;;;6.77;60.55;98028.67;107239;1257;60777;-37
2023/02/18 11:37:07;;;;;;;;;;;;;;;6.78;60.21;98027.92;107413;1257;60424;-37
2023/02/18 11:39:36;;;;;;;7.40;2.60;;;;;;;6.78;59.90;98022.61;107265;1257;74637;-37
2023/02/18 11:42:06;;;;;;;;;;;;;;;6.80;59.61;98021.02;107366;1256;69827;-36
2023/02/18 11:44:37;;;;;;;3.80;1.60;;;;;;;6.79;59.07;98022.63;107411;1257;73743;-37
2023/02/18 11:47:27;;;;;;;7.70;3.10;;;;;;;6.79;59.12;98019.92;107397;1257;60658;-37